createdAt,value
2018-10-12T00:00:09.029Z,7.27
2018-10-12T00:01:14.750Z,7.70
2018-10-12T00:02:17.467Z,6.90
2018-10-12T00:03:20.174Z,7.00
2018-10-12T00:04:23.254Z,7.00
2018-10-12T00:05:25.902Z,7.83
2018-10-12T00:06:28.753Z,7.67
2018-10-12T00:07:31.398Z,7.57
2018-10-12T00:08:34.389Z,7.00
2018-10-12T00:09:37.075Z,7.37
2018-10-12T00:10:39.730Z,6.83
2018-10-12T00:11:42.382Z,7.70
2018-10-12T00:12:45.027Z,7.43
2018-10-12T00:13:47.739Z,6.97
2018-10-12T00:14:50.401Z,7.30
2018-10-12T00:15:53.042Z,6.87
2018-10-12T00:16:55.694Z,7.87
2018-10-12T00:17:58.750Z,7.50
2018-10-12T00:19:01.492Z,7.43
2018-10-12T00:20:04.670Z,7.00
2018-10-12T00:21:07.322Z,7.13
2018-10-12T00:22:09.974Z,7.43
2018-10-12T00:23:12.626Z,8.00
2018-10-12T00:24:15.330Z,6.97
2018-10-12T00:25:17.994Z,7.70
2018-10-12T00:26:20.670Z,7.87
2018-10-12T00:27:23.322Z,7.87
2018-10-12T00:28:25.966Z,7.37
2018-10-12T00:29:28.814Z,7.97
2018-10-12T00:30:31.446Z,8.10
2018-10-12T00:31:34.094Z,7.07
2018-10-12T00:32:36.758Z,7.83
2018-10-12T00:33:39.416Z,7.57
2018-10-12T00:34:42.066Z,8.80
2018-10-12T00:35:44.722Z,8.07
2018-10-12T00:36:47.402Z,7.27
2018-10-12T00:37:50.297Z,8.23
2018-10-12T00:38:52.938Z,7.80
2018-10-12T00:39:55.642Z,8.10
2018-10-12T00:40:58.295Z,7.97
2018-10-12T00:42:00.971Z,7.97
2018-10-12T00:43:03.614Z,6.97
2018-10-12T00:44:06.345Z,7.90
2018-10-12T00:45:09.071Z,8.17
2018-10-12T00:46:11.754Z,8.67
2018-10-12T00:47:14.378Z,8.50
2018-10-12T00:48:17.018Z,8.67
2018-10-12T00:49:19.666Z,8.37
2018-10-12T00:50:22.382Z,7.83
2018-10-12T00:51:25.038Z,8.47
2018-10-12T00:52:27.687Z,8.43
2018-10-12T00:53:30.339Z,8.77
2018-10-12T00:54:32.975Z,8.93
2018-10-12T00:55:35.673Z,8.77
2018-10-12T00:56:38.351Z,8.53
2018-10-12T00:57:41.006Z,8.93
2018-10-12T00:58:43.654Z,7.53
2018-10-12T00:59:46.295Z,8.23
2018-10-12T01:00:48.994Z,8.23
2018-10-12T01:01:51.674Z,8.57
2018-10-12T01:02:54.722Z,8.20
2018-10-12T01:03:57.355Z,8.90
2018-10-12T01:05:00.000Z,8.33
2018-10-12T01:06:02.811Z,8.57
2018-10-12T01:07:05.534Z,8.53
2018-10-12T01:08:08.334Z,8.73
2018-10-12T01:09:11.066Z,8.50
2018-10-12T01:10:13.780Z,8.57
2018-10-12T01:11:16.472Z,8.97
2018-10-12T01:12:31.262Z,8.20
2018-10-12T01:13:33.904Z,8.67
2018-10-12T01:14:36.566Z,8.03
2018-10-12T01:15:39.294Z,8.83
2018-10-12T01:16:41.975Z,8.60
2018-10-12T01:17:44.694Z,8.30
2018-10-12T01:18:47.422Z,8.70
2018-10-12T01:19:50.244Z,8.97
2018-10-12T01:20:52.988Z,9.00
2018-10-12T01:21:55.746Z,8.47
2018-10-12T01:22:58.406Z,8.67
2018-10-12T01:24:01.082Z,9.00
2018-10-12T01:25:04.635Z,8.60
2018-10-12T01:26:07.394Z,8.67
2018-10-12T01:27:10.146Z,8.83
2018-10-12T01:28:12.814Z,8.13
2018-10-12T01:29:15.558Z,9.13
2018-10-12T01:30:18.253Z,9.00
2018-10-12T01:31:20.914Z,9.07
2018-10-12T01:32:28.944Z,8.77
2018-10-12T01:33:31.699Z,9.13
2018-10-12T01:34:34.342Z,8.77
2018-10-12T01:35:37.007Z,9.17
2018-10-12T01:36:39.686Z,9.97
2018-10-12T01:37:42.715Z,9.13
2018-10-12T01:38:45.370Z,9.67
2018-10-12T01:39:48.250Z,8.40
2018-10-12T01:40:50.918Z,9.03
2018-10-12T01:41:53.571Z,9.17
2018-10-12T01:42:56.566Z,9.23
2018-10-12T01:43:59.254Z,10.17
2018-10-12T01:45:02.011Z,9.80
2018-10-12T01:46:04.666Z,10.10
2018-10-12T01:47:07.616Z,9.97
2018-10-12T01:48:10.735Z,10.43
2018-10-12T01:49:13.386Z,9.57
2018-10-12T01:50:16.078Z,9.07
2018-10-12T01:51:18.814Z,10.40
2018-10-12T01:52:21.514Z,10.10
2018-10-12T01:53:24.486Z,9.40
2018-10-12T01:54:27.141Z,10.00
2018-10-12T01:55:29.798Z,10.47
2018-10-12T01:56:32.470Z,10.20
2018-10-12T01:57:35.142Z,9.83
2018-10-12T01:58:37.794Z,9.60
2018-10-12T01:59:40.509Z,9.70
2018-10-12T02:00:43.150Z,10.00
2018-10-12T02:01:45.790Z,10.53
2018-10-12T02:02:48.472Z,9.67
2018-10-12T02:03:51.415Z,9.97
2018-10-12T02:04:54.081Z,9.17
2018-10-12T02:05:56.790Z,9.57
2018-10-12T02:06:59.686Z,10.00
2018-10-12T02:08:02.373Z,9.77
2018-10-12T02:09:06.450Z,10.07
2018-10-12T02:10:09.316Z,10.37
2018-10-12T02:11:11.918Z,9.67
2018-10-12T02:12:14.619Z,9.87
2018-10-12T02:13:17.282Z,10.23
2018-10-12T02:14:20.087Z,9.90
2018-10-12T02:15:22.740Z,9.20
2018-10-12T02:16:25.399Z,10.03
2018-10-12T02:17:28.058Z,9.30
2018-10-12T02:18:30.699Z,9.67
2018-10-12T02:19:33.658Z,9.90
2018-10-12T02:20:36.328Z,9.63
2018-10-12T02:21:38.970Z,9.93
2018-10-12T02:22:42.058Z,9.97
2018-10-12T02:23:44.703Z,10.13
2018-10-12T02:24:47.622Z,9.90
2018-10-12T02:25:50.290Z,10.20
2018-10-12T02:26:52.996Z,10.17
2018-10-12T02:27:55.636Z,10.23
2018-10-12T02:28:58.666Z,10.13
2018-10-12T02:30:01.371Z,9.63
2018-10-12T02:31:04.040Z,9.27
2018-10-12T02:32:06.726Z,9.87
2018-10-12T02:33:09.386Z,9.40
2018-10-12T02:34:12.082Z,8.63
2018-10-12T02:35:14.775Z,9.23
2018-10-12T02:36:17.419Z,8.97
2018-10-12T02:37:20.067Z,9.50
2018-10-12T02:38:22.823Z,8.67
2018-10-12T02:39:25.545Z,9.27
2018-10-12T02:40:28.311Z,9.17
2018-10-12T02:41:31.622Z,9.13
2018-10-12T02:42:34.267Z,9.10
2018-10-12T02:43:36.901Z,9.47
2018-10-12T02:44:39.555Z,8.53
2018-10-12T02:45:42.259Z,8.77
2018-10-12T02:46:44.930Z,8.00
2018-10-12T02:47:47.575Z,7.90
2018-10-12T02:48:50.220Z,8.23
2018-10-12T02:49:52.889Z,7.97
2018-10-12T02:50:55.603Z,7.27
2018-10-12T02:51:58.247Z,8.10
2018-10-12T02:53:00.912Z,8.67
2018-10-12T02:54:03.602Z,8.33
2018-10-12T02:55:06.295Z,8.63
2018-10-12T02:56:13.490Z,7.50
2018-10-12T02:57:16.166Z,7.73
2018-10-12T02:58:18.830Z,8.13
2018-10-12T02:59:21.494Z,9.23
2018-10-12T03:00:24.126Z,8.23
2018-10-12T03:01:26.837Z,8.40
2018-10-12T03:02:29.491Z,7.50
2018-10-12T03:03:32.172Z,7.60
2018-10-12T03:04:34.822Z,8.00
2018-10-12T03:05:37.462Z,7.33
2018-10-12T03:06:40.113Z,8.03
2018-10-12T03:07:42.794Z,8.43
2018-10-12T03:08:45.789Z,8.30
2018-10-12T03:09:48.451Z,7.40
2018-10-12T03:10:51.113Z,7.43
2018-10-12T03:11:53.758Z,7.60
2018-10-12T03:12:56.659Z,7.83
2018-10-12T03:13:59.310Z,8.27
2018-10-12T03:15:01.992Z,7.83
2018-10-12T03:16:12.098Z,7.63
2018-10-12T03:17:14.822Z,7.60
2018-10-12T03:18:17.464Z,8.00
2018-10-12T03:19:20.141Z,7.83
2018-10-12T03:20:22.802Z,8.40
2018-10-12T03:21:25.467Z,7.77
2018-10-12T03:22:28.162Z,7.90
2018-10-12T03:23:30.818Z,7.27
2018-10-12T03:24:33.463Z,7.73
2018-10-12T03:25:36.146Z,7.77
2018-10-12T03:26:38.802Z,7.63
2018-10-12T03:27:52.566Z,7.50
2018-10-12T03:28:55.494Z,7.77
2018-10-12T03:29:58.158Z,7.37
2018-10-12T03:31:01.464Z,7.40
2018-10-12T03:32:04.210Z,7.30
2018-10-12T03:33:06.975Z,7.10
2018-10-12T03:34:09.772Z,7.27
2018-10-12T03:35:12.474Z,7.03
2018-10-12T03:36:15.261Z,8.23
2018-10-12T03:37:18.318Z,7.30
2018-10-12T03:38:21.000Z,7.10
2018-10-12T03:39:23.702Z,7.50
2018-10-12T03:40:26.398Z,7.13
2018-10-12T03:41:29.130Z,6.77
2018-10-12T03:42:31.840Z,7.57
2018-10-12T03:43:34.874Z,7.00
2018-10-12T03:44:37.547Z,7.10
2018-10-12T03:45:40.557Z,6.77
2018-10-12T03:46:43.541Z,6.57
2018-10-12T03:47:46.226Z,7.17
2018-10-12T03:48:48.920Z,6.80
2018-10-12T03:49:51.623Z,6.80
2018-10-12T03:50:54.306Z,6.67
2018-10-12T03:51:57.098Z,7.70
2018-10-12T03:52:59.723Z,7.40
2018-10-12T03:54:02.435Z,7.17
2018-10-12T03:55:05.378Z,6.50
2018-10-12T03:56:08.378Z,6.57
2018-10-12T03:57:11.129Z,6.53
2018-10-12T03:58:13.888Z,6.57
2018-10-12T03:59:16.582Z,6.23
2018-10-12T04:00:19.319Z,6.70
2018-10-12T04:01:22.023Z,6.67
2018-10-12T04:02:24.723Z,6.20
2018-10-12T04:03:27.443Z,6.43
2018-10-12T04:04:30.158Z,6.13
2018-10-12T04:05:32.856Z,6.27
2018-10-12T04:06:35.555Z,5.87
2018-10-12T04:07:38.274Z,5.90
2018-10-12T04:08:40.990Z,5.63
2018-10-12T04:09:43.725Z,6.10
2018-10-12T04:10:46.433Z,5.47
2018-10-12T04:11:49.146Z,5.93
2018-10-12T04:12:52.120Z,5.77
2018-10-12T04:13:54.839Z,5.60
2018-10-12T04:14:57.516Z,5.47
2018-10-12T04:16:00.265Z,6.00
2018-10-12T04:17:02.955Z,6.33
2018-10-12T04:18:05.658Z,5.30
2018-10-12T04:19:08.530Z,5.40
2018-10-12T04:20:11.415Z,5.57
2018-10-12T04:21:14.124Z,5.10
2018-10-12T04:22:20.578Z,5.83
2018-10-12T04:23:23.284Z,5.40
2018-10-12T04:24:26.035Z,5.00
2018-10-12T04:25:28.807Z,5.10
2018-10-12T04:26:31.524Z,5.03
2018-10-12T04:27:34.218Z,5.20
2018-10-12T04:28:36.914Z,5.17
2018-10-12T04:29:39.688Z,5.30
2018-10-12T04:30:42.427Z,5.00
2018-10-12T04:31:45.149Z,4.93
2018-10-12T04:32:47.857Z,5.17
2018-10-12T04:33:50.625Z,5.00
2018-10-12T04:34:53.365Z,4.90
2018-10-12T04:35:56.108Z,5.03
2018-10-12T04:36:58.806Z,5.43
2018-10-12T04:38:01.578Z,4.47
2018-10-12T04:39:15.377Z,5.13
2018-10-12T04:41:28.909Z,5.23
2018-10-12T04:42:31.691Z,5.20
2018-10-12T04:43:34.482Z,5.40
2018-10-12T04:44:37.275Z,4.93
2018-10-12T04:45:40.162Z,5.17
2018-10-12T04:46:43.830Z,4.53
2018-10-12T04:47:46.834Z,4.60
2018-10-12T04:48:51.151Z,5.17
2018-10-12T04:49:54.372Z,5.27
2018-10-12T04:50:57.223Z,4.90
2018-10-12T04:52:00.262Z,5.37
2018-10-12T04:53:03.039Z,4.83
2018-10-12T04:54:06.086Z,5.27
2018-10-12T04:55:08.831Z,5.90
2018-10-12T04:56:13.340Z,5.17
2018-10-12T04:57:16.126Z,5.20
2018-10-12T04:58:18.864Z,5.37
2018-10-12T04:59:21.838Z,5.30
2018-10-12T05:00:24.564Z,5.30
2018-10-12T05:01:27.368Z,5.70
2018-10-12T05:02:30.185Z,5.30
2018-10-12T05:03:33.035Z,5.30
2018-10-12T05:04:35.848Z,6.00
2018-10-12T05:05:38.560Z,5.80
2018-10-12T05:06:41.360Z,5.30
2018-10-12T05:07:44.221Z,5.60
2018-10-12T05:08:46.943Z,6.13
2018-10-12T05:09:49.664Z,6.10
2018-10-12T05:10:52.407Z,5.70
2018-10-12T05:11:55.126Z,5.73
2018-10-12T05:12:57.907Z,5.33
2018-10-12T05:14:07.624Z,5.93
2018-10-12T05:15:10.376Z,5.80
2018-10-12T05:16:13.110Z,6.17
2018-10-12T05:17:15.929Z,5.30
2018-10-12T05:18:18.801Z,6.07
2018-10-12T05:19:21.528Z,5.60
2018-10-12T05:20:24.287Z,6.00
2018-10-12T05:21:27.007Z,6.27
2018-10-12T05:22:29.708Z,5.83
2018-10-12T05:23:32.454Z,5.93
2018-10-12T05:24:35.159Z,5.73
2018-10-12T05:25:37.874Z,6.03
2018-10-12T05:26:40.581Z,5.90
2018-10-12T05:27:43.314Z,5.67
2018-10-12T05:28:46.440Z,6.07
2018-10-12T05:29:49.151Z,6.40
2018-10-12T05:30:51.891Z,5.77
2018-10-12T05:31:54.636Z,5.97
2018-10-12T05:32:57.315Z,6.00
2018-10-12T05:35:09.348Z,5.63
2018-10-12T05:36:12.148Z,5.90
2018-10-12T05:37:14.832Z,6.30
2018-10-12T05:38:17.975Z,6.13
2018-10-12T05:39:21.011Z,6.27
2018-10-12T05:40:24.962Z,6.60
2018-10-12T05:41:27.657Z,5.97
2018-10-12T05:42:30.360Z,6.53
2018-10-12T05:43:33.225Z,6.23
2018-10-12T05:44:36.091Z,6.40
2018-10-12T05:45:38.790Z,6.30
2018-10-12T05:46:41.531Z,6.57
2018-10-12T05:47:44.287Z,6.67
2018-10-12T05:48:58.205Z,7.40
2018-10-12T05:50:03.971Z,7.63
2018-10-12T05:51:07.420Z,7.80
2018-10-12T05:52:10.211Z,7.40
2018-10-12T05:53:13.252Z,7.37
2018-10-12T05:54:16.221Z,7.73
2018-10-12T05:55:19.464Z,7.93
2018-10-12T05:56:24.619Z,7.50
2018-10-12T05:57:27.614Z,8.47
2018-10-12T05:58:30.737Z,8.63
2018-10-12T05:59:33.493Z,8.27
2018-10-12T06:00:36.592Z,8.73
2018-10-12T06:01:39.339Z,9.43
2018-10-12T06:02:42.055Z,9.77
2018-10-12T06:03:44.827Z,10.07
2018-10-12T06:04:47.586Z,9.87
2018-10-12T06:05:50.659Z,10.33
2018-10-12T06:06:53.375Z,10.37
2018-10-12T06:07:56.095Z,10.50
2018-10-12T06:08:58.823Z,10.47
2018-10-12T06:10:01.664Z,10.17
2018-10-12T06:11:04.791Z,11.03
2018-10-12T06:12:07.592Z,10.20
2018-10-12T06:13:10.295Z,10.57
2018-10-12T06:14:13.002Z,9.83
2018-10-12T06:15:15.735Z,10.47
2018-10-12T06:16:18.442Z,9.80
2018-10-12T06:17:21.181Z,10.50
2018-10-12T06:18:23.895Z,10.40
2018-10-12T06:19:26.631Z,10.47
2018-10-12T06:20:29.330Z,9.80
2018-10-12T06:21:32.371Z,10.50
2018-10-12T06:22:35.061Z,10.60
2018-10-12T06:23:37.796Z,10.73
2018-10-12T06:24:40.492Z,9.80
2018-10-12T06:25:43.375Z,10.50
2018-10-12T06:26:46.339Z,9.97
2018-10-12T06:27:49.091Z,10.17
2018-10-12T06:28:51.786Z,10.20
2018-10-12T06:29:54.467Z,10.43
2018-10-12T06:30:57.171Z,10.03
2018-10-12T06:32:00.439Z,10.77
2018-10-12T06:33:03.227Z,9.30
2018-10-12T06:34:05.912Z,10.17
2018-10-12T06:35:08.635Z,10.80
2018-10-12T06:36:11.327Z,10.80
2018-10-12T06:37:14.306Z,9.57
2018-10-12T06:38:17.027Z,9.63
2018-10-12T06:39:19.722Z,9.63
2018-10-12T06:40:22.432Z,9.97
2018-10-12T06:41:25.172Z,9.77
2018-10-12T06:42:28.343Z,9.73
2018-10-12T06:43:31.069Z,10.07
2018-10-12T06:44:33.751Z,9.63
2018-10-12T06:45:36.475Z,10.17
2018-10-12T06:46:39.285Z,10.33
2018-10-12T06:47:42.211Z,10.13
2018-10-12T06:48:44.915Z,10.57
2018-10-12T06:49:47.603Z,11.13
2018-10-12T06:50:50.312Z,10.50
2018-10-12T06:51:52.999Z,10.63
2018-10-12T06:52:55.641Z,10.83
2018-10-12T06:53:58.419Z,10.93
2018-10-12T06:55:01.095Z,10.30
2018-10-12T06:56:03.799Z,10.23
2018-10-12T06:57:06.544Z,10.83
2018-10-12T06:58:09.351Z,11.30
2018-10-12T06:59:12.063Z,10.07
2018-10-12T07:00:14.763Z,11.27
2018-10-12T07:01:17.523Z,10.40
2018-10-12T07:02:20.659Z,10.33
2018-10-12T07:03:23.551Z,10.83
2018-10-12T07:04:26.269Z,10.63
2018-10-12T07:05:29.174Z,11.00
2018-10-12T07:06:31.997Z,11.07
2018-10-12T07:07:34.979Z,11.00
2018-10-12T07:08:37.775Z,11.17
2018-10-12T07:09:40.491Z,10.83
2018-10-12T07:10:43.224Z,11.10
2018-10-12T07:11:45.928Z,11.63
2018-10-12T07:12:48.676Z,11.17
2018-10-12T07:13:51.539Z,11.13
2018-10-12T07:14:54.189Z,10.83
2018-10-12T07:15:56.891Z,11.80
2018-10-12T07:16:59.603Z,11.37
2018-10-12T07:18:02.295Z,12.80
2018-10-12T07:19:05.063Z,12.50
2018-10-12T07:20:07.852Z,12.13
2018-10-12T07:21:10.699Z,12.67
2018-10-12T07:22:13.401Z,13.63
2018-10-12T07:23:16.095Z,13.03
2018-10-12T07:24:18.855Z,12.77
2018-10-12T07:25:21.542Z,13.03
2018-10-12T07:26:24.239Z,13.47
2018-10-12T07:27:26.974Z,14.57
2018-10-12T07:28:29.691Z,14.17
2018-10-12T07:29:32.459Z,14.97
2018-10-12T07:30:35.152Z,14.40
2018-10-12T07:31:37.926Z,13.83
2018-10-12T07:32:40.556Z,14.87
2018-10-12T07:33:43.246Z,14.43
2018-10-12T07:34:45.997Z,14.90
2018-10-12T07:35:48.731Z,14.67
2018-10-12T07:36:51.447Z,15.43
2018-10-12T07:37:54.150Z,15.97
2018-10-12T07:38:56.843Z,16.10
2018-10-12T07:39:59.615Z,16.27
2018-10-12T07:41:02.303Z,15.30
2018-10-12T07:42:05.000Z,16.37
2018-10-12T07:43:07.695Z,15.73
2018-10-12T07:44:10.426Z,16.27
2018-10-12T07:45:13.123Z,16.90
2018-10-12T07:46:15.799Z,17.27
2018-10-12T07:47:18.576Z,16.53
2018-10-12T07:48:21.252Z,17.00
2018-10-12T07:49:23.944Z,16.57
2018-10-12T07:50:26.722Z,16.80
2018-10-12T07:51:29.391Z,17.10
2018-10-12T07:52:32.171Z,17.70
2018-10-12T07:53:34.851Z,18.60
2018-10-12T07:54:37.531Z,17.67
2018-10-12T07:55:40.283Z,18.03
2018-10-12T07:56:42.983Z,17.83
2018-10-12T07:57:45.679Z,17.77
2018-10-12T07:58:48.483Z,17.67
2018-10-12T07:59:51.206Z,17.13
2018-10-12T08:00:53.892Z,17.57
2018-10-12T08:01:56.593Z,19.17
2018-10-12T08:02:59.271Z,19.03
2018-10-12T08:04:01.979Z,19.30
2018-10-12T08:05:04.724Z,17.77
2018-10-12T08:06:07.499Z,18.63
2018-10-12T08:07:11.287Z,17.73
2018-10-12T08:08:14.007Z,17.37
2018-10-12T08:09:16.695Z,17.53
2018-10-12T08:10:19.412Z,16.77
2018-10-12T08:11:22.188Z,17.27
2018-10-12T08:12:24.921Z,16.63
2018-10-12T08:13:27.635Z,16.77
2018-10-12T08:14:30.326Z,16.37
2018-10-12T08:15:33.252Z,16.93
2018-10-12T08:16:36.033Z,16.57
2018-10-12T08:17:38.778Z,17.00
2018-10-12T08:18:42.227Z,16.40
2018-10-12T08:19:45.095Z,15.33
2018-10-12T08:20:47.895Z,16.20
2018-10-12T08:21:50.761Z,14.43
2018-10-12T08:22:53.503Z,14.47
2018-10-12T08:23:56.222Z,14.47
2018-10-12T08:24:58.915Z,14.00
2018-10-12T08:26:01.680Z,13.03
2018-10-12T08:27:04.671Z,14.43
2018-10-12T08:28:07.312Z,14.13
2018-10-12T08:29:09.995Z,13.07
2018-10-12T08:30:12.947Z,13.00
2018-10-12T08:31:15.649Z,12.43
2018-10-12T08:32:18.578Z,12.67
2018-10-12T08:33:21.399Z,12.97
2018-10-12T08:34:24.167Z,12.87
2018-10-12T08:35:26.855Z,11.97
2018-10-12T08:36:29.563Z,13.17
2018-10-12T08:37:32.380Z,11.77
2018-10-12T08:38:35.139Z,11.87
2018-10-12T08:39:37.811Z,11.43
2018-10-12T08:40:40.513Z,12.13
2018-10-12T08:41:43.292Z,11.00
2018-10-12T08:42:46.024Z,11.57
2018-10-12T08:43:48.712Z,11.57
2018-10-12T08:44:51.393Z,10.67
2018-10-12T08:45:54.083Z,11.80
2018-10-12T08:46:56.781Z,10.67
2018-10-12T08:47:59.547Z,11.57
2018-10-12T08:49:02.234Z,10.73
2018-10-12T08:50:05.058Z,11.00
2018-10-12T08:51:07.814Z,10.10
2018-10-12T08:52:10.531Z,10.70
2018-10-12T08:53:13.319Z,11.07
2018-10-12T08:54:16.081Z,10.37
2018-10-12T08:55:18.836Z,10.63
2018-10-12T08:56:21.506Z,10.60
2018-10-12T08:57:24.254Z,10.17
2018-10-12T08:58:27.013Z,9.97
2018-10-12T08:59:29.692Z,9.77
2018-10-12T09:00:32.450Z,10.03
2018-10-12T09:01:35.174Z,9.27
2018-10-12T09:02:37.880Z,8.97
2018-10-12T09:03:40.639Z,9.37
2018-10-12T09:04:43.315Z,9.33
2018-10-12T09:05:46.021Z,9.47
2018-10-12T09:06:48.711Z,10.00
2018-10-12T09:07:51.403Z,9.63
2018-10-12T09:08:54.164Z,9.90
2018-10-12T09:09:56.925Z,8.97
2018-10-12T09:10:59.600Z,9.30
2018-10-12T09:12:02.287Z,9.37
2018-10-12T09:13:05.092Z,9.63
2018-10-12T09:14:07.866Z,9.40
2018-10-12T09:15:10.595Z,9.03
2018-10-12T09:16:13.423Z,9.90
2018-10-12T09:17:16.130Z,9.50
2018-10-12T09:18:18.837Z,9.77
2018-10-12T09:19:21.583Z,8.83
2018-10-12T09:20:24.368Z,9.27
2018-10-12T09:21:27.015Z,9.63
2018-10-12T09:22:29.716Z,9.63
2018-10-12T09:23:32.419Z,10.23
2018-10-12T09:24:35.175Z,9.10
2018-10-12T09:25:37.871Z,9.87
2018-10-12T09:26:40.570Z,9.13
2018-10-12T09:27:43.283Z,9.67
2018-10-12T09:28:45.975Z,10.23
2018-10-12T09:29:48.791Z,9.30
2018-10-12T09:30:51.475Z,9.13
2018-10-12T09:31:54.252Z,9.40
2018-10-12T09:32:56.948Z,9.27
2018-10-12T09:33:59.646Z,9.10
2018-10-12T09:35:02.415Z,9.70
2018-10-12T09:36:05.115Z,9.67
2018-10-12T09:37:08.088Z,9.20
2018-10-12T09:38:10.863Z,9.20
2018-10-12T09:39:13.542Z,9.10
2018-10-12T09:40:16.323Z,9.60
2018-10-12T09:41:19.048Z,9.37
2018-10-12T09:42:21.860Z,9.57
2018-10-12T09:43:24.572Z,9.00
2018-10-12T09:44:27.251Z,8.77
2018-10-12T09:45:30.008Z,9.33
2018-10-12T09:46:32.671Z,9.20
2018-10-12T09:47:35.366Z,9.97
2018-10-12T09:48:38.066Z,9.00
2018-10-12T09:49:40.738Z,8.93
2018-10-12T09:50:43.774Z,9.20
2018-10-12T09:51:46.199Z,9.37
2018-10-12T09:52:48.881Z,9.20
2018-10-12T09:53:51.547Z,9.33
2018-10-12T09:54:54.223Z,9.67
2018-10-12T09:55:57.225Z,9.03
2018-10-12T09:57:05.567Z,9.30
2018-10-12T09:58:08.517Z,9.10
2018-10-12T09:59:11.208Z,9.27
2018-10-12T10:00:19.679Z,9.20
2018-10-12T10:01:27.899Z,9.90
2018-10-12T10:02:36.068Z,9.37
2018-10-12T10:03:44.278Z,8.73
2018-10-12T10:04:46.992Z,8.63
2018-10-12T10:05:49.754Z,9.50
2018-10-12T10:06:52.489Z,9.30
2018-10-12T10:07:55.349Z,8.70
2018-10-12T10:08:58.047Z,9.40
2018-10-12T10:10:00.744Z,10.10
2018-10-12T10:11:03.475Z,9.67
2018-10-12T10:12:06.526Z,9.73
2018-10-12T10:13:09.236Z,10.00
2018-10-12T10:14:11.983Z,9.70
2018-10-12T10:15:14.687Z,10.80
2018-10-12T10:16:17.402Z,10.67
2018-10-12T10:17:20.480Z,9.70
2018-10-12T10:18:23.248Z,10.27
2018-10-12T10:19:26.034Z,10.30
2018-10-12T10:20:28.725Z,9.87
2018-10-12T10:21:31.447Z,10.50
2018-10-12T10:22:34.535Z,10.80
2018-10-12T10:23:37.238Z,9.90
2018-10-12T10:24:39.995Z,9.83
2018-10-12T10:25:42.959Z,10.53
2018-10-12T10:26:45.686Z,11.50
2018-10-12T10:27:48.745Z,10.90
2018-10-12T10:28:51.467Z,11.10
2018-10-12T10:29:54.212Z,11.33
2018-10-12T10:30:59.491Z,11.23
2018-10-12T10:32:02.235Z,11.10
2018-10-12T10:33:05.339Z,11.83
2018-10-12T10:34:08.498Z,11.93
2018-10-12T10:35:11.091Z,12.57
2018-10-12T10:36:13.825Z,13.03
2018-10-12T10:37:16.571Z,13.40
2018-10-12T10:38:19.281Z,13.07
2018-10-12T10:39:22.002Z,13.00
2018-10-12T10:40:24.863Z,14.37
2018-10-12T10:41:27.595Z,13.67
2018-10-12T10:42:30.343Z,14.03
2018-10-12T10:43:33.343Z,13.77
2018-10-12T10:44:36.147Z,13.83
2018-10-12T10:45:38.915Z,12.90
2018-10-12T10:46:41.713Z,14.23
2018-10-12T10:47:44.505Z,12.33
2018-10-12T10:48:47.564Z,14.17
2018-10-12T10:49:50.356Z,14.07
2018-10-12T10:50:53.195Z,15.10
2018-10-12T10:51:55.925Z,15.10
2018-10-12T10:52:58.731Z,15.40
2018-10-12T10:54:01.773Z,15.73
2018-10-12T10:55:04.639Z,15.30
2018-10-12T10:56:07.511Z,15.53
2018-10-12T10:57:10.407Z,16.20
2018-10-12T10:58:13.139Z,16.37
2018-10-12T10:59:16.175Z,15.20
2018-10-12T11:00:18.955Z,14.87
2018-10-12T11:01:21.720Z,15.80
2018-10-12T11:02:24.469Z,16.67
2018-10-12T11:03:27.182Z,16.07
2018-10-12T11:04:31.042Z,16.13
2018-10-12T11:05:33.967Z,16.13
2018-10-12T11:06:36.713Z,16.77
2018-10-12T11:07:39.467Z,16.17
2018-10-12T11:08:42.229Z,16.63
2018-10-12T11:09:45.200Z,16.43
2018-10-12T11:10:48.016Z,16.67
2018-10-12T11:11:50.739Z,15.80
2018-10-12T11:12:53.547Z,15.87
2018-10-12T11:13:56.301Z,16.27
2018-10-12T11:14:59.361Z,16.17
2018-10-12T11:16:02.129Z,16.40
2018-10-12T11:17:04.889Z,15.53
2018-10-12T11:18:07.623Z,16.03
2018-10-12T11:19:10.414Z,16.77
2018-10-12T11:20:13.506Z,17.20
2018-10-12T11:21:16.254Z,17.10
2018-10-12T11:22:19.004Z,15.80
2018-10-12T11:23:21.743Z,16.27
2018-10-12T11:24:24.507Z,16.37
2018-10-12T11:25:27.377Z,17.00
2018-10-12T11:26:30.211Z,15.40
2018-10-12T11:27:32.984Z,16.43
2018-10-12T11:28:35.710Z,16.60
2018-10-12T11:29:38.419Z,15.70
2018-10-12T11:30:41.540Z,17.03
2018-10-12T11:31:44.280Z,16.37
2018-10-12T11:32:47.056Z,16.27
2018-10-12T11:33:49.803Z,15.50
2018-10-12T11:34:52.582Z,15.90
2018-10-12T11:35:55.630Z,16.47
2018-10-12T11:36:58.347Z,16.80
2018-10-12T11:38:01.079Z,16.63
2018-10-12T11:39:06.755Z,16.40
2018-10-12T11:40:09.527Z,15.53
2018-10-12T11:41:12.614Z,16.53
2018-10-12T11:42:15.320Z,16.63
2018-10-12T11:43:35.806Z,14.87
2018-10-12T11:44:38.513Z,15.40
2018-10-12T11:45:41.236Z,15.90
2018-10-12T11:46:44.250Z,16.53
2018-10-12T11:47:46.975Z,16.13
2018-10-12T11:48:49.687Z,15.57
2018-10-12T11:49:52.388Z,16.83
2018-10-12T11:50:55.124Z,15.97
2018-10-12T11:51:58.158Z,16.83
2018-10-12T11:53:00.894Z,16.40
2018-10-12T11:54:03.667Z,16.10
2018-10-12T11:55:07.261Z,16.07
2018-10-12T11:56:09.551Z,16.07
2018-10-12T11:57:12.587Z,16.90
2018-10-12T11:58:15.379Z,16.33
2018-10-12T11:59:18.168Z,15.50
2018-10-12T12:00:20.879Z,16.27
2018-10-12T12:01:23.615Z,16.80
2018-10-12T12:02:26.409Z,16.50
2018-10-12T12:03:29.151Z,16.03
2018-10-12T12:04:31.887Z,15.83
2018-10-12T12:05:34.615Z,15.87
2018-10-12T12:06:37.343Z,16.13
2018-10-12T12:07:40.241Z,16.50
2018-10-12T12:08:42.944Z,16.67
2018-10-12T12:09:45.687Z,17.60
2018-10-12T12:10:48.439Z,17.20
2018-10-12T12:11:51.174Z,16.27
2018-10-12T12:12:53.970Z,16.27
2018-10-12T12:13:56.766Z,16.77
2018-10-12T12:14:59.423Z,18.80
2018-10-12T12:16:02.136Z,17.70
2018-10-12T12:17:04.899Z,18.70
2018-10-12T12:18:07.723Z,18.40
2018-10-12T12:19:10.541Z,16.87
2018-10-12T12:20:13.247Z,17.43
2018-10-12T12:21:16.063Z,18.37
2018-10-12T12:22:18.824Z,17.30
2018-10-12T12:23:21.540Z,17.20
2018-10-12T12:24:24.235Z,17.23
2018-10-12T12:25:26.979Z,17.13
2018-10-12T12:26:29.731Z,16.83
2018-10-12T12:27:32.459Z,16.67
2018-10-12T12:28:35.218Z,18.07
2018-10-12T12:29:37.955Z,18.77
2018-10-12T12:30:40.718Z,17.23
2018-10-12T12:31:43.418Z,16.90
2018-10-12T12:32:46.171Z,17.33
2018-10-12T12:33:48.997Z,17.20
2018-10-12T12:34:51.841Z,17.30
2018-10-12T12:35:54.859Z,17.57
2018-10-12T12:36:57.275Z,17.60
2018-10-12T12:38:00.007Z,17.17
2018-10-12T12:39:03.211Z,17.27
2018-10-12T12:40:06.023Z,19.27
2018-10-12T12:41:08.775Z,16.93
2018-10-12T12:42:11.479Z,18.03
2018-10-12T12:43:14.215Z,17.70
2018-10-12T12:44:17.009Z,17.57
2018-10-12T12:45:19.693Z,18.03
2018-10-12T12:46:22.347Z,17.30
2018-10-12T12:47:25.256Z,17.83
2018-10-12T12:48:28.122Z,17.20
2018-10-12T12:49:30.825Z,18.03
2018-10-12T12:50:33.242Z,18.10
2018-10-12T12:51:35.902Z,16.83
2018-10-12T12:52:38.582Z,17.47
2018-10-12T12:53:41.681Z,17.57
2018-10-12T12:54:44.376Z,17.37
2018-10-12T12:55:47.041Z,17.93
2018-10-12T12:56:49.753Z,17.87
2018-10-12T12:57:52.418Z,18.33
2018-10-12T12:58:56.311Z,18.20
2018-10-12T12:59:59.043Z,18.53
2018-10-12T13:01:01.693Z,17.87
2018-10-12T13:02:04.371Z,18.33
2018-10-12T13:03:07.031Z,18.00
2018-10-12T13:04:09.728Z,19.13
2018-10-12T13:05:12.391Z,18.20
2018-10-12T13:06:15.040Z,17.60
2018-10-12T13:07:17.695Z,17.77
2018-10-12T13:08:20.443Z,18.23
2018-10-12T13:09:23.123Z,18.97
2018-10-12T13:10:25.826Z,18.90
2018-10-12T13:11:28.479Z,18.27
2018-10-12T13:12:31.159Z,18.50
2018-10-12T13:13:33.853Z,18.47
2018-10-12T13:14:36.539Z,17.67
2018-10-12T13:15:39.284Z,18.47
2018-10-12T13:16:41.958Z,17.93
2018-10-12T13:17:44.623Z,18.47
2018-10-12T13:18:47.292Z,17.33
2018-10-12T13:19:50.004Z,19.20
2018-10-12T13:20:52.767Z,18.90
2018-10-12T13:21:55.471Z,18.53
2018-10-12T13:22:58.155Z,18.23
2018-10-12T13:24:00.847Z,18.23
2018-10-12T13:25:03.659Z,18.93
2018-10-12T13:26:06.915Z,17.67
2018-10-12T13:27:09.439Z,18.87
2018-10-12T13:28:12.127Z,17.70
2018-10-12T13:29:14.808Z,18.23
2018-10-12T13:30:17.471Z,17.57
2018-10-12T13:31:20.225Z,17.57
2018-10-12T13:32:22.922Z,16.73
2018-10-12T13:33:25.587Z,17.87
2018-10-12T13:34:28.315Z,17.60
2018-10-12T13:35:31.024Z,17.10
2018-10-12T13:36:33.826Z,18.23
2018-10-12T13:37:36.574Z,16.87
2018-10-12T13:38:39.227Z,17.03
2018-10-12T13:39:41.924Z,17.10
2018-10-12T13:40:44.744Z,17.13
2018-10-12T13:41:47.567Z,17.23
2018-10-12T13:42:50.297Z,17.23
2018-10-12T13:43:53.040Z,16.97
2018-10-12T13:44:55.727Z,16.13
2018-10-12T13:45:58.399Z,16.40